createdAt,value
2023-02-27T00:02:01.104Z,64.03
2023-02-27T00:04:28.252Z,64.48
2023-02-27T00:06:54.949Z,65.12
2023-02-27T00:09:21.707Z,64.57
2023-02-27T00:11:48.252Z,64.85
2023-02-27T00:14:14.810Z,64.30
2023-02-27T00:16:41.359Z,64.08
2023-02-27T00:19:08.008Z,64.41
2023-02-27T00:21:36.701Z,65.05
2023-02-27T00:24:06.314Z,64.07
2023-02-27T00:26:32.906Z,65.49
2023-02-27T00:28:59.534Z,65.17
2023-02-27T00:31:26.528Z,65.06
2023-02-27T00:33:53.267Z,65.43
2023-02-27T00:36:19.819Z,65.88
2023-02-27T00:38:46.492Z,64.83
2023-02-27T00:41:15.103Z,64.93
2023-02-27T00:43:41.686Z,64.58
2023-02-27T00:46:08.358Z,64.20
2023-02-27T00:48:34.954Z,64.46
2023-02-27T00:51:01.834Z,64.73
2023-02-27T00:53:28.537Z,64.28
2023-02-27T00:55:55.073Z,64.83
2023-02-27T00:58:21.624Z,65.20
2023-02-27T01:00:48.420Z,64.09
2023-02-27T01:03:15.106Z,64.55
2023-02-27T01:05:41.805Z,65.00
2023-02-27T01:08:08.535Z,64.48
2023-02-27T01:10:35.098Z,65.86
2023-02-27T01:13:01.711Z,64.40
2023-02-27T01:15:28.441Z,64.54
2023-02-27T01:17:55.055Z,64.14
2023-02-27T01:20:24.563Z,64.94
2023-02-27T01:22:51.172Z,65.45
2023-02-27T01:25:18.031Z,64.52
2023-02-27T01:27:44.631Z,63.72
2023-02-27T01:30:12.229Z,64.20
2023-02-27T01:32:38.874Z,64.34
2023-02-27T01:35:06.211Z,64.20
2023-02-27T01:37:32.788Z,63.66
2023-02-27T01:39:59.519Z,64.18
2023-02-27T01:42:28.366Z,64.08
2023-02-27T01:45:03.919Z,64.31
2023-02-27T01:47:30.793Z,63.09
2023-02-27T01:49:57.409Z,62.75
2023-02-27T01:52:24.134Z,62.78
2023-02-27T01:54:50.745Z,62.98
2023-02-27T01:57:17.580Z,62.45
2023-02-27T01:59:44.231Z,62.13
2023-02-27T02:02:27.132Z,62.46
2023-02-27T02:04:57.910Z,63.16
2023-02-27T02:07:24.590Z,62.38
2023-02-27T02:10:00.609Z,62.51
2023-02-27T02:12:31.466Z,62.13
2023-02-27T02:14:58.096Z,63.32
2023-02-27T02:17:36.238Z,62.83
2023-02-27T02:20:28.458Z,62.58
2023-02-27T02:23:33.827Z,62.06
2023-02-27T02:26:48.069Z,61.69
2023-02-27T02:29:56.666Z,61.06
2023-02-27T02:32:44.452Z,61.01
2023-02-27T02:35:35.668Z,60.92
2023-02-27T02:38:33.412Z,60.44
2023-02-27T02:41:08.302Z,61.83
2023-02-27T02:44:07.771Z,61.11
2023-02-27T02:46:55.180Z,61.75
2023-02-27T02:49:42.286Z,61.20
2023-02-27T02:52:26.191Z,61.62
2023-02-27T02:55:08.016Z,59.32
2023-02-27T02:57:44.121Z,59.59
2023-02-27T03:00:22.432Z,59.71
2023-02-27T03:02:55.680Z,60.18
2023-02-27T03:05:30.375Z,60.43
2023-02-27T03:08:06.014Z,61.32
2023-02-27T03:10:38.637Z,60.63
2023-02-27T03:13:11.661Z,61.17
2023-02-27T03:15:48.149Z,60.93
2023-02-27T03:18:25.550Z,61.19
2023-02-27T03:20:57.619Z,59.94
2023-02-27T03:23:32.108Z,61.03
2023-02-27T03:26:00.028Z,61.51
2023-02-27T03:28:32.429Z,60.60
2023-02-27T03:31:19.580Z,60.95
2023-02-27T03:33:51.946Z,61.41
2023-02-27T03:36:46.241Z,61.91
2023-02-27T03:39:27.229Z,61.32
2023-02-27T03:41:56.833Z,61.47
2023-02-27T03:44:52.510Z,60.47
2023-02-27T03:47:19.982Z,61.43
2023-02-27T03:49:47.044Z,60.61
2023-02-27T03:52:16.499Z,61.30
2023-02-27T03:54:53.099Z,61.33
2023-02-27T03:57:19.867Z,60.63
2023-02-27T03:59:49.870Z,60.82
2023-02-27T04:02:16.665Z,61.87
2023-02-27T04:04:43.236Z,60.84
2023-02-27T04:07:22.856Z,61.09
2023-02-27T04:10:29.809Z,61.22
2023-02-27T04:13:09.521Z,59.98
2023-02-27T04:16:09.638Z,61.52
2023-02-27T04:19:09.045Z,60.93
2023-02-27T04:21:49.796Z,59.75
2023-02-27T04:24:49.744Z,60.66
2023-02-27T04:27:45.480Z,60.92
2023-02-27T04:30:41.849Z,61.27
2023-02-27T04:33:20.829Z,60.36
2023-02-27T04:35:51.075Z,60.86
2023-02-27T04:38:27.825Z,61.46
2023-02-27T04:41:13.352Z,62.09
2023-02-27T04:43:43.050Z,62.36
2023-02-27T04:46:14.049Z,60.55
2023-02-27T04:49:04.132Z,60.50
2023-02-27T04:51:40.136Z,60.71
2023-02-27T04:54:13.219Z,61.62
2023-02-27T04:57:00.290Z,60.83
2023-02-27T04:59:37.903Z,61.15
2023-02-27T05:02:18.104Z,60.56
2023-02-27T05:04:46.945Z,61.84
2023-02-27T05:07:18.929Z,61.64
2023-02-27T05:09:54.605Z,61.91
2023-02-27T05:12:26.394Z,61.10
2023-02-27T05:15:03.243Z,60.64
2023-02-27T05:17:58.029Z,60.29
2023-02-27T05:20:29.783Z,60.44
2023-02-27T05:23:02.325Z,61.20
2023-02-27T05:25:50.319Z,61.24
2023-02-27T05:28:24.397Z,61.47
2023-02-27T05:31:02.086Z,61.54
2023-02-27T05:33:51.717Z,60.80
2023-02-27T05:36:27.000Z,61.20
2023-02-27T05:38:58.812Z,60.36
2023-02-27T05:41:48.747Z,60.15
2023-02-27T05:44:26.031Z,60.14
2023-02-27T05:46:59.548Z,60.57
2023-02-27T05:49:47.847Z,59.60
2023-02-27T05:52:18.921Z,59.69
2023-02-27T05:55:01.099Z,59.95
2023-02-27T05:57:44.709Z,59.93
2023-02-27T06:00:15.140Z,60.02
2023-02-27T06:02:43.720Z,58.85
2023-02-27T06:05:10.668Z,59.00
2023-02-27T06:07:38.098Z,59.11
2023-02-27T06:10:06.530Z,59.93
2023-02-27T06:12:33.890Z,58.76
2023-02-27T06:15:00.619Z,58.93
2023-02-27T06:17:27.213Z,58.48
2023-02-27T06:19:53.772Z,58.18
2023-02-27T06:22:20.448Z,59.02
2023-02-27T06:24:47.056Z,58.82
2023-02-27T06:27:13.612Z,57.22
2023-02-27T06:29:40.375Z,58.56
2023-02-27T06:32:07.013Z,58.05
2023-02-27T06:34:33.905Z,57.34
2023-02-27T06:37:02.598Z,57.04
2023-02-27T06:39:30.591Z,56.24
2023-02-27T06:41:57.501Z,56.86
2023-02-27T06:44:25.381Z,57.30
2023-02-27T06:46:55.903Z,55.74
2023-02-27T06:49:24.081Z,54.83
2023-02-27T06:51:51.803Z,54.65
2023-02-27T06:54:18.894Z,55.98
2023-02-27T06:56:45.488Z,55.33
2023-02-27T06:59:19.109Z,54.87
2023-02-27T07:01:45.842Z,55.75
2023-02-27T07:04:21.972Z,54.55
2023-02-27T07:07:33.977Z,53.86
2023-02-27T07:09:48.255Z,55.60
2023-02-27T07:15:42.643Z,55.14
2023-02-27T07:18:27.283Z,54.59
2023-02-27T07:24:08.082Z,54.71
2023-02-27T07:26:34.910Z,57.09
2023-02-27T07:29:11.601Z,56.47
2023-02-27T07:32:03.154Z,55.12
2023-02-27T07:34:56.457Z,54.26
2023-02-27T07:37:25.178Z,54.65
2023-02-27T07:40:07.988Z,54.62
2023-02-27T07:42:41.702Z,55.25
2023-02-27T07:45:29.510Z,55.41
2023-02-27T07:47:59.895Z,54.85
2023-02-27T07:50:34.198Z,54.60
2023-02-27T07:53:08.928Z,54.55
2023-02-27T07:55:37.185Z,54.63
2023-02-27T07:58:04.094Z,53.33
2023-02-27T08:00:33.071Z,52.66
2023-02-27T08:03:03.605Z,53.26
2023-02-27T08:08:22.763Z,52.57
2023-02-27T08:10:53.688Z,51.15
2023-02-27T08:13:42.197Z,51.46
2023-02-27T08:19:07.977Z,53.18
2023-02-27T08:21:34.524Z,51.41
2023-02-27T08:24:01.182Z,52.46
2023-02-27T08:26:28.091Z,52.30
2023-02-27T08:28:55.277Z,52.34
2023-02-27T08:31:27.061Z,51.47
2023-02-27T08:34:09.436Z,51.90
2023-02-27T08:36:50.004Z,53.27
2023-02-27T08:39:18.759Z,51.94
2023-02-27T08:42:12.100Z,51.80
2023-02-27T08:44:42.547Z,52.29
2023-02-27T08:47:09.447Z,53.09
2023-02-27T08:49:36.076Z,51.00
2023-02-27T08:52:02.992Z,51.75
2023-02-27T08:54:30.151Z,51.70
2023-02-27T08:56:56.808Z,51.05
2023-02-27T08:59:26.296Z,52.05
2023-02-27T09:01:53.156Z,52.15
2023-02-27T09:04:19.830Z,50.16
2023-02-27T09:06:46.802Z,51.91
2023-02-27T09:09:13.780Z,50.41
2023-02-27T09:11:40.508Z,51.23
2023-02-27T09:14:07.845Z,50.59
2023-02-27T09:16:34.825Z,51.06
2023-02-27T09:19:01.592Z,51.34
2023-02-27T09:21:28.269Z,50.31
2023-02-27T09:23:55.050Z,51.42
2023-02-27T09:26:28.770Z,50.24
2023-02-27T09:29:02.401Z,50.90
2023-02-27T09:31:32.127Z,51.28
2023-02-27T09:33:59.647Z,51.21
2023-02-27T09:36:26.497Z,50.82
2023-02-27T09:38:53.340Z,49.93
2023-02-27T09:41:37.451Z,50.34
2023-02-27T09:44:44.887Z,50.95
2023-02-27T09:47:23.405Z,50.05
2023-02-27T09:49:59.322Z,50.19
2023-02-27T09:52:27.956Z,49.36
2023-02-27T09:54:54.891Z,50.52
2023-02-27T09:57:34.018Z,48.75
2023-02-27T10:00:07.597Z,49.68
2023-02-27T10:02:53.213Z,48.90
2023-02-27T10:09:00.719Z,48.37
2023-02-27T10:12:08.704Z,48.41
2023-02-27T10:15:19.391Z,48.93
2023-02-27T10:18:16.876Z,48.39
2023-02-27T10:21:03.150Z,48.07
2023-02-27T10:24:07.822Z,47.13
2023-02-27T10:26:41.886Z,47.94
2023-02-27T10:29:40.149Z,47.94
2023-02-27T10:32:28.279Z,46.88
2023-02-27T10:35:28.811Z,45.94
2023-02-27T10:38:02.152Z,46.05
2023-02-27T10:40:35.131Z,47.08
2023-02-27T10:43:05.280Z,46.65
2023-02-27T10:45:38.767Z,46.04
2023-02-27T10:48:06.578Z,45.92
2023-02-27T10:50:36.637Z,45.80
2023-02-27T10:53:09.979Z,46.02
2023-02-27T10:55:42.203Z,46.42
2023-02-27T10:58:19.602Z,46.76
2023-02-27T11:00:55.694Z,45.89
2023-02-27T11:03:28.801Z,45.84
2023-02-27T11:05:59.679Z,45.94
2023-02-27T11:08:32.299Z,45.95
2023-02-27T11:11:05.021Z,46.12
2023-02-27T11:14:01.308Z,46.64
2023-02-27T11:16:30.282Z,46.53
2023-02-27T11:18:58.916Z,46.17
2023-02-27T11:21:30.149Z,46.88
2023-02-27T11:24:09.434Z,46.88
2023-02-27T11:26:53.067Z,46.00
2023-02-27T11:29:20.482Z,46.40
2023-02-27T11:32:15.047Z,47.08
2023-02-27T11:34:52.466Z,46.26
2023-02-27T11:37:36.534Z,46.81
2023-02-27T11:40:09.200Z,46.19
2023-02-27T11:42:41.740Z,46.47
2023-02-27T11:46:04.305Z,46.79
2023-02-27T11:48:24.627Z,47.55
2023-02-27T11:51:30.646Z,47.05
2023-02-27T11:54:03.307Z,46.77
2023-02-27T11:56:44.104Z,46.47
2023-02-27T11:59:10.620Z,46.67
2023-02-27T12:01:56.894Z,46.96
2023-02-27T12:04:26.564Z,46.82
2023-02-27T12:07:03.524Z,47.31
2023-02-27T12:09:42.220Z,47.29
2023-02-27T12:12:28.367Z,46.55
2023-02-27T12:15:10.280Z,47.04
2023-02-27T12:17:47.577Z,46.21
2023-02-27T12:20:35.040Z,47.08
2023-02-27T12:23:06.295Z,46.88
2023-02-27T12:25:53.993Z,45.70
2023-02-27T12:28:34.770Z,46.60
2023-02-27T12:31:13.027Z,47.32
2023-02-27T12:34:00.484Z,47.25
2023-02-27T12:36:32.438Z,46.32
2023-02-27T12:38:59.118Z,46.14
2023-02-27T12:41:28.813Z,47.06
2023-02-27T12:44:35.059Z,46.61
2023-02-27T12:47:10.811Z,46.16
2023-02-27T12:49:56.897Z,46.06
2023-02-27T12:52:54.031Z,45.55
2023-02-27T12:55:26.589Z,45.17
2023-02-27T12:58:30.611Z,45.15
2023-02-27T13:01:01.573Z,45.79
2023-02-27T13:04:12.286Z,45.05
2023-02-27T13:07:04.082Z,44.58
2023-02-27T13:09:41.169Z,45.23
2023-02-27T13:12:25.470Z,44.67
2023-02-27T13:15:07.724Z,43.17
2023-02-27T13:17:55.192Z,44.50
2023-02-27T13:20:21.725Z,44.20
2023-02-27T13:22:58.983Z,44.51
2023-02-27T13:25:29.519Z,44.72
2023-02-27T13:28:06.841Z,44.70
2023-02-27T13:30:43.081Z,44.61
2023-02-27T13:33:37.121Z,44.82
2023-02-27T13:36:13.911Z,44.75
2023-02-27T13:38:48.097Z,45.64
2023-02-27T13:41:23.152Z,46.01
2023-02-27T13:44:03.477Z,45.89
2023-02-27T13:46:34.304Z,46.13
2023-02-27T13:49:07.915Z,47.30
2023-02-27T13:51:46.225Z,46.56
2023-02-27T13:54:16.951Z,46.32
2023-02-27T13:57:06.917Z,46.89
2023-02-27T13:59:40.683Z,47.00
2023-02-27T14:02:14.887Z,46.42
2023-02-27T14:04:53.416Z,47.44
2023-02-27T14:07:33.475Z,46.08
2023-02-27T14:10:04.502Z,47.26
2023-02-27T14:12:46.462Z,46.89
2023-02-27T14:15:30.267Z,47.03
2023-02-27T14:18:13.898Z,47.38
2023-02-27T14:20:47.463Z,46.94
2023-02-27T14:23:17.118Z,48.31
2023-02-27T14:26:05.152Z,47.28
2023-02-27T14:28:50.767Z,47.43
2023-02-27T14:31:38.276Z,48.11
2023-02-27T14:34:05.983Z,47.66
2023-02-27T14:36:40.085Z,48.08
2023-02-27T14:39:12.755Z,48.65
2023-02-27T14:42:18.435Z,48.27
2023-02-27T14:44:47.313Z,49.19
2023-02-27T14:47:18.975Z,48.56
2023-02-27T14:49:47.396Z,49.30
2023-02-27T14:52:25.535Z,49.03
2023-02-27T14:54:53.020Z,49.03
2023-02-27T14:57:25.186Z,48.99
2023-02-27T14:59:54.959Z,48.88
2023-02-27T15:02:32.632Z,49.51
2023-02-27T15:05:02.245Z,49.51
2023-02-27T15:07:32.150Z,48.68
2023-02-27T15:10:05.221Z,49.35
2023-02-27T15:12:38.724Z,48.98
2023-02-27T15:15:07.416Z,49.63
2023-02-27T15:17:42.297Z,49.25
2023-02-27T15:20:31.109Z,49.33
2023-02-27T15:22:59.567Z,50.32
2023-02-27T15:25:33.700Z,50.11
2023-02-27T15:28:06.847Z,50.93
2023-02-27T15:30:33.599Z,50.60
2023-02-27T15:33:03.999Z,50.33
2023-02-27T15:35:39.936Z,50.82
2023-02-27T15:38:06.539Z,51.78
2023-02-27T15:40:37.073Z,51.78
2023-02-27T15:43:04.000Z,51.30
2023-02-27T15:45:36.220Z,51.72
2023-02-27T15:48:03.979Z,51.83
2023-02-27T15:50:39.074Z,51.50
2023-02-27T15:53:12.797Z,52.08
2023-02-27T15:55:50.011Z,52.13
2023-02-27T15:58:22.699Z,52.11
2023-02-27T16:00:52.473Z,53.29
2023-02-27T16:03:23.705Z,53.08
2023-02-27T16:05:52.728Z,52.73
2023-02-27T16:08:23.784Z,52.77
2023-02-27T16:11:00.531Z,53.24
2023-02-27T16:13:56.676Z,54.36
2023-02-27T16:16:38.388Z,53.93
2023-02-27T16:19:28.970Z,54.82
2023-02-27T16:22:11.391Z,54.61
2023-02-27T16:24:41.134Z,55.21
2023-02-27T16:27:20.034Z,54.69
2023-02-27T16:29:57.979Z,55.20
2023-02-27T16:32:31.025Z,55.68
2023-02-27T16:35:01.985Z,56.07
2023-02-27T16:37:36.359Z,55.57
2023-02-27T16:40:15.389Z,55.60
2023-02-27T16:42:43.003Z,55.25
2023-02-27T16:45:21.022Z,56.20
2023-02-27T16:47:56.464Z,56.03
2023-02-27T16:50:35.001Z,55.74
2023-02-27T16:53:01.547Z,56.09
2023-02-27T16:55:33.370Z,56.19
2023-02-27T16:58:00.284Z,57.34
2023-02-27T17:00:26.920Z,56.25
2023-02-27T17:02:56.389Z,57.45
2023-02-27T17:05:26.260Z,56.04
2023-02-27T17:07:52.854Z,56.33
2023-02-27T17:10:24.045Z,56.48
2023-02-27T17:12:51.023Z,56.81
2023-02-27T17:15:18.526Z,56.43
2023-02-27T17:17:48.398Z,56.37
2023-02-27T17:20:15.081Z,57.27
2023-02-27T17:22:45.904Z,57.24
2023-02-27T17:25:15.928Z,56.53
2023-02-27T17:27:43.822Z,57.20
2023-02-27T17:30:12.433Z,57.01
2023-02-27T17:32:39.058Z,57.32
2023-02-27T17:35:10.623Z,58.26
2023-02-27T17:37:38.205Z,57.85
2023-02-27T17:40:06.341Z,58.30
2023-02-27T17:42:37.556Z,58.92
2023-02-27T17:45:05.164Z,58.08
2023-02-27T17:47:32.548Z,57.76
2023-02-27T17:50:03.321Z,57.07
2023-02-27T17:52:32.602Z,58.27
2023-02-27T17:54:59.342Z,57.18
2023-02-27T17:57:26.101Z,58.50
2023-02-27T17:59:52.794Z,58.42
2023-02-27T18:02:22.161Z,58.15
2023-02-27T18:04:48.884Z,57.19
2023-02-27T18:07:15.519Z,57.23
2023-02-27T18:09:45.187Z,57.95
2023-02-27T18:12:11.953Z,58.03
2023-02-27T18:14:38.600Z,58.41
2023-02-27T18:17:05.229Z,57.99
2023-02-27T18:19:32.629Z,57.43
2023-02-27T18:21:59.763Z,57.04
2023-02-27T18:24:29.387Z,57.96
2023-02-27T18:26:58.233Z,57.16
2023-02-27T18:29:24.881Z,57.89
2023-02-27T18:31:54.778Z,57.64
2023-02-27T18:34:22.870Z,58.70
2023-02-27T18:36:58.406Z,58.93
2023-02-27T18:39:25.002Z,57.94
2023-02-27T18:41:51.754Z,58.50
2023-02-27T18:44:18.558Z,58.94
2023-02-27T18:46:45.338Z,59.05
2023-02-27T18:49:14.567Z,58.53
2023-02-27T18:51:41.360Z,59.76
2023-02-27T18:54:08.445Z,58.53
2023-02-27T18:56:35.115Z,58.86
2023-02-27T18:59:01.780Z,58.88
2023-02-27T19:01:30.304Z,59.90
2023-02-27T19:03:57.368Z,58.06
2023-02-27T19:06:24.291Z,59.00
2023-02-27T19:08:51.001Z,58.73
2023-02-27T19:11:27.855Z,58.18
2023-02-27T19:13:54.371Z,58.45
2023-02-27T19:16:21.095Z,58.25
2023-02-27T19:18:47.859Z,59.43
2023-02-27T19:21:27.632Z,58.12
2023-02-27T19:23:54.699Z,58.51
2023-02-27T19:26:21.672Z,59.60
2023-02-27T19:29:01.009Z,59.78
2023-02-27T19:31:27.575Z,58.58
2023-02-27T19:33:54.488Z,59.21
2023-02-27T19:36:25.553Z,59.71
2023-02-27T19:38:52.694Z,60.04
2023-02-27T19:41:25.595Z,59.95
2023-02-27T19:43:52.644Z,60.43
2023-02-27T19:46:24.493Z,59.07
2023-02-27T19:48:57.225Z,59.66
2023-02-27T19:51:24.453Z,59.30
2023-02-27T19:56:34.624Z,59.65
2023-02-27T19:59:01.358Z,59.60
2023-02-27T20:01:31.218Z,60.24
2023-02-27T20:04:02.093Z,59.47
2023-02-27T20:06:31.313Z,59.61
2023-02-27T20:08:58.864Z,60.27
2023-02-27T20:11:31.690Z,60.13
2023-02-27T20:13:58.549Z,60.56
2023-02-27T20:16:26.812Z,60.47
2023-02-27T20:18:54.140Z,60.11
2023-02-27T20:21:23.669Z,60.54
2023-02-27T20:23:51.481Z,59.60
2023-02-27T20:26:36.488Z,60.50
2023-02-27T20:29:13.849Z,59.86
2023-02-27T20:31:42.555Z,59.56
2023-02-27T20:34:09.980Z,59.85
2023-02-27T20:36:43.205Z,60.99
2023-02-27T20:39:12.325Z,60.13
2023-02-27T20:41:39.390Z,60.49
2023-02-27T20:44:07.533Z,60.75
2023-02-27T20:46:35.232Z,61.46
2023-02-27T20:49:04.360Z,61.17
2023-02-27T20:51:36.945Z,61.98
2023-02-27T20:54:06.864Z,61.69
2023-02-27T20:56:39.070Z,62.76
2023-02-27T20:59:11.760Z,62.15
2023-02-27T21:01:43.064Z,61.59
2023-02-27T21:04:09.756Z,62.41
2023-02-27T21:06:36.410Z,62.01
2023-02-27T21:09:06.331Z,62.09
2023-02-27T21:11:34.155Z,62.90
2023-02-27T21:14:09.001Z,62.66
2023-02-27T21:16:36.000Z,63.27
2023-02-27T21:19:02.579Z,62.94
2023-02-27T21:21:31.935Z,62.70
2023-02-27T21:24:09.671Z,63.37
2023-02-27T21:26:38.695Z,63.74
2023-02-27T21:29:19.399Z,64.22
2023-02-27T21:31:48.160Z,63.78
2023-02-27T21:34:18.183Z,63.78
2023-02-27T21:36:45.599Z,63.88
2023-02-27T21:39:15.878Z,64.39
2023-02-27T21:41:43.121Z,64.45
2023-02-27T21:44:12.798Z,63.49
2023-02-27T21:46:39.624Z,64.28
2023-02-27T21:49:06.568Z,64.39
2023-02-27T21:51:40.436Z,64.51
2023-02-27T21:54:09.403Z,64.19
2023-02-27T21:56:36.169Z,65.02
2023-02-27T21:59:03.103Z,65.47
2023-02-27T22:01:30.906Z,65.56
2023-02-27T22:03:58.020Z,65.25
2023-02-27T22:06:26.977Z,64.90
2023-02-27T22:08:55.566Z,65.08
2023-02-27T22:11:26.609Z,65.46
2023-02-27T22:13:56.506Z,65.54
2023-02-27T22:16:23.805Z,67.08
2023-02-27T22:18:50.463Z,66.50
2023-02-27T22:21:23.887Z,66.48
2023-02-27T22:23:50.923Z,65.98
2023-02-27T22:26:20.565Z,65.83
2023-02-27T22:28:47.952Z,65.86
2023-02-27T22:31:20.043Z,66.28
2023-02-27T22:33:49.279Z,66.23
2023-02-27T22:36:19.609Z,66.03
2023-02-27T22:38:49.658Z,66.20
2023-02-27T22:41:28.977Z,66.85
2023-02-27T22:43:57.738Z,66.16
2023-02-27T22:46:30.726Z,66.76
2023-02-27T22:49:00.266Z,66.44
2023-02-27T22:51:28.199Z,67.21
2023-02-27T22:53:57.078Z,66.64
2023-02-27T22:56:27.089Z,66.09
2023-02-27T22:58:54.170Z,66.56
2023-02-27T23:01:26.976Z,66.33
2023-02-27T23:03:57.213Z,65.95
2023-02-27T23:06:26.871Z,66.42
2023-02-27T23:08:56.993Z,65.99
2023-02-27T23:11:24.016Z,66.10
2023-02-27T23:13:51.432Z,66.21
2023-02-27T23:16:19.169Z,66.63
2023-02-27T23:18:49.306Z,67.11
2023-02-27T23:21:18.074Z,66.07
2023-02-27T23:23:44.982Z,65.68
2023-02-27T23:26:12.561Z,66.01
2023-02-27T23:28:39.531Z,67.18
2023-02-27T23:31:09.836Z,65.84
2023-02-27T23:33:36.909Z,66.49
2023-02-27T23:36:06.924Z,66.46
2023-02-27T23:38:33.773Z,66.96
2023-02-27T23:41:06.623Z,66.82
2023-02-27T23:43:34.029Z,67.55
2023-02-27T23:46:06.584Z,66.63
2023-02-27T23:48:34.152Z,66.81
2023-02-27T23:51:03.059Z,66.71
2023-02-27T23:53:30.435Z,67.54
2023-02-27T23:56:02.961Z,67.31
2023-02-27T23:58:29.998Z,67.59
